Terminal Aerodrome Forecast
Issued by NWS Wilmington, OH

Current Version | Previous Version | Graphics & Text | Print | Product List | Glossary On
Versions: 1 2 3 4 5 6 7 8 9 10 11 12 13 14 15 16 17 18 19
000
FTUS41 KILN 181423 AAA
TAFILN
TAF AMD
KILN 181423Z 1814/1912 14006KT P6SM BKN018
     FM181700 14008KT P6SM SCT250
     FM190900 16010KT P6SM BKN022
     FM191100 18010KT 2SM -SHRA BR OVC005=

USA.gov is the U.S. government's official web portal to all federal, state and local government web resources and services.